createdAt,value
2023-04-24T00:00:09.752Z,99291.69
2023-04-24T00:02:48.815Z,99303.09
2023-04-24T00:05:20.174Z,99300.38
2023-04-24T00:07:55.083Z,99302.97
2023-04-24T00:10:27.384Z,99302.97
2023-04-24T00:12:58.861Z,99297.66
2023-04-24T00:15:30.188Z,99296.06
2023-04-24T00:18:02.356Z,99291.19
2023-04-24T00:20:34.314Z,99283.63
2023-04-24T00:23:05.823Z,99283.31
2023-04-24T00:25:37.120Z,99249.13
2023-04-24T00:28:08.397Z,99273.63
2023-04-24T00:30:39.737Z,99269.53
2023-04-24T00:33:11.343Z,99264.50
2023-04-24T00:35:42.611Z,99273.53
2023-04-24T00:38:13.893Z,99275.47
2023-04-24T00:40:45.770Z,99272.00
2023-04-24T00:43:17.641Z,99272.81
2023-04-24T00:45:49.008Z,99275.53
2023-04-24T00:48:21.459Z,99253.84
2023-04-24T00:50:52.988Z,99258.25
2023-04-24T00:53:24.258Z,99269.94
2023-04-24T00:55:55.939Z,99273.50
2023-04-24T00:58:27.750Z,99257.97
2023-04-24T01:01:02.190Z,99245.56
2023-04-24T01:03:34.312Z,99256.50
2023-04-24T01:06:06.389Z,99270.22
2023-04-24T01:08:38.003Z,99262.19
2023-04-24T01:11:09.344Z,99262.19
2023-04-24T01:13:40.693Z,99264.69
2023-04-24T01:16:12.112Z,99258.53
2023-04-24T01:18:44.208Z,99258.59
2023-04-24T01:21:17.498Z,99239.47
2023-04-24T01:23:48.915Z,99255.16
2023-04-24T01:26:21.035Z,99244.97
2023-04-24T01:28:53.193Z,99256.44
2023-04-24T01:31:25.178Z,99244.84
2023-04-24T01:33:57.526Z,99258.84
2023-04-24T01:36:32.180Z,99256.84
2023-04-24T01:39:04.448Z,99267.28
2023-04-24T01:41:35.789Z,99259.31
2023-04-24T01:44:07.266Z,99260.50
2023-04-24T01:46:39.300Z,99226.84
2023-04-24T01:49:11.081Z,99245.91
2023-04-24T01:51:42.418Z,99231.38
2023-04-24T01:54:13.814Z,99240.47
2023-04-24T01:56:46.374Z,99243.25
2023-04-24T01:59:18.179Z,99236.59
2023-04-24T02:01:49.671Z,99221.59
2023-04-24T02:04:21.110Z,99228.00
2023-04-24T02:06:52.432Z,99235.91
2023-04-24T02:09:23.758Z,99225.78
2023-04-24T02:11:55.056Z,99243.56
2023-04-24T02:14:26.681Z,99235.91
2023-04-24T02:16:58.686Z,99237.94
2023-04-24T02:19:30.006Z,99231.19
2023-04-24T02:22:01.307Z,99240.16
2023-04-24T02:24:32.591Z,99228.19
2023-04-24T02:27:04.011Z,99236.03
2023-04-24T02:29:35.771Z,99227.53
2023-04-24T02:32:07.065Z,99238.13
2023-04-24T02:34:39.104Z,99234.00
2023-04-24T02:37:10.803Z,99223.81
2023-04-24T02:39:42.340Z,99223.28
2023-04-24T02:42:13.894Z,99245.88
2023-04-24T02:44:45.171Z,99219.97
2023-04-24T02:47:16.468Z,99243.56
2023-04-24T02:49:47.836Z,99248.19
2023-04-24T02:52:19.174Z,99240.41
2023-04-24T02:54:50.736Z,99239.75
2023-04-24T02:57:22.058Z,99237.22
2023-04-24T02:59:53.325Z,99236.53
2023-04-24T03:02:24.753Z,99228.78
2023-04-24T03:04:56.157Z,99230.66
2023-04-24T03:07:27.726Z,99235.16
2023-04-24T03:09:59.399Z,99226.41
2023-04-24T03:12:30.682Z,99201.56
2023-04-24T03:15:01.994Z,99230.09
2023-04-24T03:17:33.630Z,99222.63
2023-04-24T03:20:06.510Z,99231.25
2023-04-24T03:22:37.966Z,99231.38
2023-04-24T03:25:10.462Z,99221.00
2023-04-24T03:27:42.469Z,99223.75
2023-04-24T03:30:13.923Z,99221.16
2023-04-24T03:32:45.326Z,99217.06
2023-04-24T03:35:16.594Z,99216.25
2023-04-24T03:37:47.956Z,99220.53
2023-04-24T03:40:19.468Z,99223.22
2023-04-24T03:42:50.849Z,99227.66
2023-04-24T03:45:22.297Z,99209.50
2023-04-24T03:47:53.707Z,99223.38
2023-04-24T03:50:25.113Z,99217.44
2023-04-24T03:52:56.425Z,99216.59
2023-04-24T03:55:27.678Z,99220.31
2023-04-24T03:57:59.020Z,99199.84
2023-04-24T04:00:32.597Z,99204.16
2023-04-24T04:03:04.666Z,99218.91
2023-04-24T04:05:36.085Z,99220.69
2023-04-24T04:08:07.420Z,99206.03
2023-04-24T04:10:38.666Z,99204.31
2023-04-24T04:13:09.950Z,99203.66
2023-04-24T04:15:41.569Z,99227.09
2023-04-24T04:18:13.077Z,99207.16
2023-04-24T04:20:44.473Z,99223.53
2023-04-24T04:23:15.801Z,99231.31
2023-04-24T04:25:47.946Z,99229.28
2023-04-24T04:28:20.775Z,99209.19
2023-04-24T04:30:55.868Z,99232.91
2023-04-24T04:33:27.461Z,99234.56
2023-04-24T04:35:59.281Z,99233.81
2023-04-24T04:38:30.886Z,99237.47
2023-04-24T04:41:03.168Z,99239.47
2023-04-24T04:43:35.549Z,99190.88
2023-04-24T04:46:07.023Z,99211.78
2023-04-24T04:48:38.953Z,99227.28
2023-04-24T04:51:10.214Z,99234.94
2023-04-24T04:53:41.467Z,99211.34
2023-04-24T04:56:12.925Z,99222.63
2023-04-24T04:58:44.223Z,99230.19
2023-04-24T05:01:15.548Z,99232.72
2023-04-24T05:03:47.013Z,99233.38
2023-04-24T05:06:18.471Z,99234.88
2023-04-24T05:08:49.845Z,99226.03
2023-04-24T05:11:21.144Z,99235.25
2023-04-24T05:13:52.431Z,99222.94
2023-04-24T05:16:23.704Z,99242.66
2023-04-24T05:18:54.985Z,99238.84
2023-04-24T05:21:26.472Z,99202.91
2023-04-24T05:23:57.908Z,99219.03
2023-04-24T05:26:29.300Z,99225.47
2023-04-24T05:29:01.169Z,99214.38
2023-04-24T05:31:32.571Z,99234.59
2023-04-24T05:34:03.864Z,99218.78
2023-04-24T05:36:35.343Z,99226.94
2023-04-24T05:39:08.337Z,99197.97
2023-04-24T05:41:39.791Z,99216.09
2023-04-24T05:44:11.189Z,99216.56
2023-04-24T05:46:42.506Z,99230.84
2023-04-24T05:49:13.849Z,99237.63
2023-04-24T05:51:45.340Z,99214.81
2023-04-24T05:54:16.804Z,99214.16
2023-04-24T05:56:48.163Z,99248.19
2023-04-24T05:59:19.898Z,99235.69
2023-04-24T06:01:51.313Z,99234.41
2023-04-24T06:04:22.933Z,99238.56
2023-04-24T06:06:56.892Z,99240.94
2023-04-24T06:09:28.300Z,99252.19
2023-04-24T06:12:00.917Z,99238.00
2023-04-24T06:14:32.287Z,99264.41
2023-04-24T06:17:03.667Z,99262.47
2023-04-24T06:19:34.973Z,99262.09
2023-04-24T06:22:06.254Z,99273.69
2023-04-24T06:24:37.628Z,99242.56
2023-04-24T06:27:08.903Z,99236.97
2023-04-24T06:29:40.652Z,99271.47
2023-04-24T06:32:12.047Z,99268.38
2023-04-24T06:34:43.372Z,99262.22
2023-04-24T06:37:15.328Z,99243.38
2023-04-24T06:39:46.840Z,99259.94
2023-04-24T06:42:18.321Z,99272.53
2023-04-24T06:44:49.599Z,99242.78
2023-04-24T06:47:20.906Z,99279.03
2023-04-24T06:49:53.429Z,99263.28
2023-04-24T06:52:24.817Z,99273.50
2023-04-24T06:55:02.037Z,99275.09
2023-04-24T06:57:33.348Z,99255.75
2023-04-24T07:00:06.155Z,99275.84
2023-04-24T07:02:38.605Z,99277.63
2023-04-24T07:05:10.082Z,99278.75
2023-04-24T07:07:41.504Z,99278.66
2023-04-24T07:10:13.010Z,99276.69
2023-04-24T07:12:44.387Z,99278.69
2023-04-24T07:15:15.856Z,99271.75
2023-04-24T07:17:47.459Z,99264.84
2023-04-24T07:20:18.924Z,99281.59
2023-04-24T07:22:50.407Z,99286.16
2023-04-24T07:25:21.682Z,99278.00
2023-04-24T07:27:54.110Z,99293.88
2023-04-24T07:30:26.077Z,99276.59
2023-04-24T07:32:57.449Z,99291.03
2023-04-24T07:35:28.810Z,99303.56
2023-04-24T07:38:00.238Z,99311.13
2023-04-24T07:40:31.552Z,99300.97
2023-04-24T07:43:02.829Z,99312.34
2023-04-24T07:45:37.930Z,99314.81
2023-04-24T07:48:09.989Z,99317.00
2023-04-24T07:50:41.358Z,99316.25
2023-04-24T07:53:12.653Z,99327.38
2023-04-24T07:55:44.220Z,99316.19
2023-04-24T07:58:16.114Z,99327.06
2023-04-24T08:00:47.838Z,99340.03
2023-04-24T08:03:20.949Z,99340.56
2023-04-24T08:05:52.778Z,99352.16
2023-04-24T08:08:24.286Z,99337.34
2023-04-24T08:10:55.894Z,99355.97
2023-04-24T08:13:27.207Z,99351.91
2023-04-24T08:15:58.692Z,99342.88
2023-04-24T08:18:30.078Z,99320.97
2023-04-24T08:21:02.408Z,99317.06
2023-04-24T08:23:33.957Z,99325.72
2023-04-24T08:26:05.816Z,99330.06
2023-04-24T08:28:37.128Z,99327.13
2023-04-24T08:31:08.450Z,99338.34
2023-04-24T08:33:41.793Z,99342.94
2023-04-24T08:36:13.102Z,99325.06
2023-04-24T08:38:44.429Z,99340.75
2023-04-24T08:41:16.982Z,99326.97
2023-04-24T08:43:48.623Z,99330.31
2023-04-24T08:46:20.959Z,99343.03
2023-04-24T08:48:53.508Z,99346.00
2023-04-24T08:51:27.446Z,99343.41
2023-04-24T08:53:58.918Z,99335.06
2023-04-24T08:56:31.942Z,99335.75
2023-04-24T08:59:03.738Z,99354.78
2023-04-24T09:01:36.076Z,99347.50
2023-04-24T09:04:11.217Z,99337.09
2023-04-24T09:06:42.913Z,99345.22
2023-04-24T09:09:14.549Z,99362.22
2023-04-24T09:11:45.855Z,99363.25
2023-04-24T09:14:17.832Z,99357.88
2023-04-24T09:16:49.281Z,99360.72
2023-04-24T09:19:22.646Z,99368.75
2023-04-24T09:21:55.057Z,99336.91
2023-04-24T09:24:26.398Z,99339.34
2023-04-24T09:27:05.190Z,99359.88
2023-04-24T09:29:36.467Z,99369.97
2023-04-24T09:32:22.310Z,99357.31
2023-04-24T09:35:14.895Z,99375.44
2023-04-24T09:37:47.860Z,99372.94
2023-04-24T09:40:21.537Z,99359.06
2023-04-24T09:42:54.175Z,99379.47
2023-04-24T09:45:39.339Z,99367.50
2023-04-24T09:48:11.248Z,99379.03
2023-04-24T09:50:47.055Z,99341.91
2023-04-24T09:53:25.059Z,99378.44
2023-04-24T09:55:56.710Z,99360.78
2023-04-24T09:58:30.155Z,99373.97
2023-04-24T10:01:01.525Z,99385.94
2023-04-24T10:03:34.451Z,99381.56
2023-04-24T10:06:09.715Z,99380.19
2023-04-24T10:08:41.368Z,99389.38
2023-04-24T10:11:14.228Z,99359.09
2023-04-24T10:13:45.724Z,99388.53
2023-04-24T10:16:17.582Z,99384.31
2023-04-24T10:18:49.732Z,99376.47
2023-04-24T10:21:21.225Z,99387.59
2023-04-24T10:23:52.647Z,99386.47
2023-04-24T10:26:24.606Z,99374.31
2023-04-24T10:28:58.980Z,99345.84
2023-04-24T10:31:33.296Z,99353.47
2023-04-24T10:34:06.712Z,99375.78
2023-04-24T10:36:42.458Z,99357.44
2023-04-24T10:39:15.929Z,99363.53
2023-04-24T10:41:50.196Z,99380.19
2023-04-24T10:44:23.140Z,99371.94
2023-04-24T10:46:56.170Z,99379.09
2023-04-24T10:49:31.939Z,99376.72
2023-04-24T10:52:07.841Z,99379.72
2023-04-24T10:54:47.639Z,99363.31
2023-04-24T10:57:22.638Z,99383.66
2023-04-24T11:00:12.463Z,99365.59
2023-04-24T11:02:50.110Z,99379.94
2023-04-24T11:05:22.847Z,99378.00
2023-04-24T11:08:17.531Z,99379.47
2023-04-24T11:10:57.671Z,99378.97
2023-04-24T11:13:56.896Z,99374.28
2023-04-24T11:16:34.152Z,99395.94
2023-04-24T11:19:11.044Z,99389.59
2023-04-24T11:22:03.773Z,99388.00
2023-04-24T11:24:41.539Z,99353.66
2023-04-24T11:27:18.226Z,99386.75
2023-04-24T11:29:55.780Z,99387.56
2023-04-24T11:32:33.507Z,99372.91
2023-04-24T11:35:09.337Z,99368.38
2023-04-24T11:37:42.816Z,99389.16
2023-04-24T11:40:20.132Z,99387.34
2023-04-24T11:42:52.691Z,99384.75
2023-04-24T11:45:30.816Z,99391.44
2023-04-24T11:48:03.919Z,99385.94
2023-04-24T11:50:36.111Z,99392.31
2023-04-24T11:53:07.392Z,99360.91
2023-04-24T11:55:38.710Z,99390.00
2023-04-24T11:58:09.993Z,99396.03
2023-04-24T12:00:41.414Z,99397.69
2023-04-24T12:03:13.388Z,99378.69
2023-04-24T12:05:46.172Z,99394.28
2023-04-24T12:08:30.154Z,99370.84
2023-04-24T12:11:05.906Z,99399.28
2023-04-24T12:13:37.427Z,99384.47
2023-04-24T12:16:08.820Z,99398.66
2023-04-24T12:18:44.863Z,99399.72
2023-04-24T12:21:23.375Z,99404.81
2023-04-24T12:23:57.816Z,99404.13
2023-04-24T12:26:29.991Z,99412.50
2023-04-24T12:29:02.484Z,99398.53
2023-04-24T12:31:33.918Z,99398.19
2023-04-24T12:34:17.650Z,99409.91
2023-04-24T12:36:49.346Z,99396.97
2023-04-24T12:39:21.173Z,99403.69
2023-04-24T12:42:00.180Z,99386.75
2023-04-24T12:44:35.659Z,99409.50
2023-04-24T12:47:07.067Z,99400.34
2023-04-24T12:49:38.378Z,99377.41
2023-04-24T12:52:09.756Z,99411.19
2023-04-24T12:54:41.079Z,99406.09
2023-04-24T12:57:12.400Z,99414.00
2023-04-24T12:59:44.487Z,99398.41
2023-04-24T13:02:18.567Z,99409.03
2023-04-24T13:04:50.749Z,99406.53
2023-04-24T13:07:22.246Z,99401.38
2023-04-24T13:09:55.266Z,99381.31
2023-04-24T13:12:27.354Z,99385.41
2023-04-24T13:14:59.634Z,99417.50
2023-04-24T13:17:30.968Z,99385.84
2023-04-24T13:20:02.432Z,99396.97
2023-04-24T13:22:33.760Z,99380.91
2023-04-24T13:25:06.903Z,99385.22
2023-04-24T13:27:39.599Z,99396.88
2023-04-24T13:30:11.524Z,99382.63
2023-04-24T13:32:42.955Z,99394.81
2023-04-24T13:35:14.445Z,99383.88
2023-04-24T13:37:45.747Z,99401.53
2023-04-24T13:40:17.062Z,99402.66
2023-04-24T13:42:48.437Z,99398.69
2023-04-24T13:45:25.149Z,99383.38
2023-04-24T13:47:58.240Z,99399.56
2023-04-24T13:50:29.614Z,99408.16
2023-04-24T13:53:03.011Z,99398.13
2023-04-24T13:55:34.417Z,99394.41
2023-04-24T13:58:08.315Z,99367.13
2023-04-24T14:00:39.652Z,99397.13
2023-04-24T14:03:11.965Z,99375.94
2023-04-24T14:05:43.457Z,99392.59
2023-04-24T14:08:14.736Z,99379.41
2023-04-24T14:10:46.174Z,99386.84
2023-04-24T14:13:17.869Z,99376.94
2023-04-24T14:15:49.211Z,99406.84
2023-04-24T14:18:20.980Z,99403.00
2023-04-24T14:20:52.234Z,99401.22
2023-04-24T14:23:23.677Z,99406.16
2023-04-24T14:25:55.037Z,99409.13
2023-04-24T14:28:27.457Z,99410.50
2023-04-24T14:30:58.811Z,99418.84
2023-04-24T14:33:30.100Z,99414.84
2023-04-24T14:36:03.510Z,99422.59
2023-04-24T14:38:35.092Z,99419.88
2023-04-24T14:41:13.900Z,99437.91
2023-04-24T14:43:45.814Z,99430.56
2023-04-24T14:46:17.409Z,99449.47
2023-04-24T14:48:48.737Z,99444.16
2023-04-24T14:51:20.563Z,99455.28
2023-04-24T14:53:52.615Z,99461.38
2023-04-24T14:56:24.194Z,99455.13
2023-04-24T14:58:56.247Z,99462.91
2023-04-24T15:01:27.766Z,99469.69
2023-04-24T15:03:59.250Z,99480.31
2023-04-24T15:06:31.875Z,99487.81
2023-04-24T15:09:03.257Z,99480.59
2023-04-24T15:11:34.672Z,99476.97
2023-04-24T15:14:06.160Z,99513.25
2023-04-24T15:16:37.475Z,99510.53
2023-04-24T15:19:08.920Z,99533.06
2023-04-24T15:21:42.516Z,99546.13
2023-04-24T15:24:13.782Z,99557.44
2023-04-24T15:26:45.500Z,99561.50
2023-04-24T15:29:16.794Z,99562.13
2023-04-24T15:31:48.153Z,99576.59
2023-04-24T15:34:19.490Z,99559.34
2023-04-24T15:36:50.798Z,99570.84
2023-04-24T15:39:23.463Z,99586.56
2023-04-24T15:41:54.746Z,99597.47
2023-04-24T15:44:26.019Z,99575.88
2023-04-24T15:46:57.318Z,99594.97
2023-04-24T15:49:28.638Z,99588.84
2023-04-24T15:51:59.969Z,99599.44
2023-04-24T15:54:31.275Z,99618.88
2023-04-24T15:57:02.632Z,99615.41
2023-04-24T15:59:34.037Z,99614.53
2023-04-24T16:02:05.498Z,99593.97
2023-04-24T16:04:37.053Z,99631.44
2023-04-24T16:07:08.524Z,99639.47
2023-04-24T16:09:40.323Z,99644.16
2023-04-24T16:12:11.945Z,99649.66
2023-04-24T16:14:43.381Z,99651.66
2023-04-24T16:17:14.732Z,99625.78
2023-04-24T16:19:46.137Z,99654.41
2023-04-24T16:22:17.418Z,99663.94
2023-04-24T16:24:48.799Z,99657.50
2023-04-24T16:27:20.170Z,99648.81
2023-04-24T16:29:51.996Z,99664.47
2023-04-24T16:32:23.377Z,99645.63
2023-04-24T16:34:54.868Z,99647.63
2023-04-24T16:37:26.273Z,99663.06
2023-04-24T16:39:57.705Z,99674.44
2023-04-24T16:42:29.082Z,99671.56
2023-04-24T16:45:00.430Z,99680.22
2023-04-24T16:47:31.747Z,99678.41
2023-04-24T16:50:04.766Z,99643.63
2023-04-24T16:52:36.113Z,99685.34
2023-04-24T16:55:07.905Z,99659.41
2023-04-24T16:57:39.276Z,99673.38
2023-04-24T17:00:11.219Z,99676.59
2023-04-24T17:02:42.590Z,99682.72
2023-04-24T17:05:14.896Z,99677.41
2023-04-24T17:07:46.257Z,99672.16
2023-04-24T17:10:17.645Z,99656.69
2023-04-24T17:12:48.921Z,99679.19
2023-04-24T17:15:20.213Z,99673.81
2023-04-24T17:17:51.713Z,99676.34
2023-04-24T17:20:24.031Z,99676.25
2023-04-24T17:22:55.685Z,99678.94
2023-04-24T17:25:27.034Z,99652.03
2023-04-24T17:27:58.379Z,99666.09
2023-04-24T17:30:29.865Z,99685.31
2023-04-24T17:33:01.387Z,99680.19
2023-04-24T17:35:34.829Z,99686.16
2023-04-24T17:38:06.414Z,99682.75
2023-04-24T17:40:38.411Z,99688.78
2023-04-24T17:43:09.840Z,99688.66
2023-04-24T17:45:41.229Z,99673.22
2023-04-24T17:48:13.672Z,99689.81
2023-04-24T17:50:45.987Z,99697.88
2023-04-24T17:53:18.737Z,99696.94
2023-04-24T17:55:50.345Z,99687.22
2023-04-24T17:58:21.631Z,99693.38
2023-04-24T18:00:52.971Z,99690.72
2023-04-24T18:03:24.517Z,99692.38
2023-04-24T18:05:56.188Z,99693.25
2023-04-24T18:08:27.626Z,99668.03
2023-04-24T18:10:59.325Z,99685.44
2023-04-24T18:13:30.791Z,99700.38
2023-04-24T18:16:02.210Z,99687.44
2023-04-24T18:18:33.599Z,99695.25
2023-04-24T18:21:05.285Z,99687.44
2023-04-24T18:23:36.655Z,99706.47
2023-04-24T18:26:08.347Z,99696.19
2023-04-24T18:28:39.625Z,99704.72
2023-04-24T18:31:11.497Z,99702.97
2023-04-24T18:33:43.041Z,99707.41
2023-04-24T18:36:14.444Z,99711.78
2023-04-24T18:38:45.976Z,99714.34
2023-04-24T18:41:17.477Z,99689.28
2023-04-24T18:43:49.018Z,99726.81
2023-04-24T18:46:20.366Z,99704.31
2023-04-24T18:48:51.741Z,99726.94
2023-04-24T18:51:23.271Z,99718.19
2023-04-24T18:53:54.843Z,99726.00
2023-04-24T18:56:26.664Z,99729.50
2023-04-24T18:58:57.989Z,99734.88
2023-04-24T19:01:29.465Z,99735.72
2023-04-24T19:04:01.030Z,99727.06
2023-04-24T19:06:32.908Z,99739.19
2023-04-24T19:09:04.224Z,99735.66
2023-04-24T19:11:35.612Z,99739.22
2023-04-24T19:14:07.285Z,99744.59
2023-04-24T19:16:38.657Z,99756.84
2023-04-24T19:19:10.119Z,99750.75
2023-04-24T19:21:41.448Z,99753.28
2023-04-24T19:24:12.897Z,99748.00
2023-04-24T19:26:45.312Z,99749.72
2023-04-24T19:29:16.659Z,99741.28
2023-04-24T19:31:48.025Z,99738.75
2023-04-24T19:34:19.449Z,99757.94
2023-04-24T19:36:51.258Z,99740.63
2023-04-24T19:39:22.674Z,99760.59
2023-04-24T19:41:55.676Z,99737.06
2023-04-24T19:44:27.035Z,99754.53
2023-04-24T19:46:58.422Z,99760.63
2023-04-24T19:49:30.275Z,99735.28
2023-04-24T19:52:01.649Z,99758.00
2023-04-24T19:54:33.507Z,99737.13
2023-04-24T19:57:04.844Z,99739.78
2023-04-24T19:59:36.720Z,99745.94
2023-04-24T20:02:09.698Z,99743.22
2023-04-24T20:04:41.828Z,99745.03
2023-04-24T20:07:13.484Z,99734.69
2023-04-24T20:09:44.894Z,99747.81
2023-04-24T20:12:16.369Z,99732.19
2023-04-24T20:14:48.190Z,99735.50
2023-04-24T20:17:19.561Z,99746.91
2023-04-24T20:19:50.965Z,99746.00
2023-04-24T20:22:22.353Z,99745.13
2023-04-24T20:24:53.744Z,99733.06
2023-04-24T20:27:25.155Z,99756.59
2023-04-24T20:29:56.621Z,99760.06
2023-04-24T20:32:27.965Z,99760.97
2023-04-24T20:34:59.368Z,99760.09
2023-04-24T20:37:30.626Z,99760.22
2023-04-24T20:40:05.310Z,99761.94
2023-04-24T20:42:36.723Z,99769.78
2023-04-24T20:45:08.578Z,99763.56
2023-04-24T20:47:39.868Z,99758.53
2023-04-24T20:50:11.792Z,99746.31
2023-04-24T20:52:43.045Z,99757.44
2023-04-24T20:55:15.239Z,99740.13
2023-04-24T20:57:46.615Z,99764.50
2023-04-24T21:00:18.039Z,99765.34
2023-04-24T21:02:49.415Z,99766.22
2023-04-24T21:05:21.028Z,99764.59
2023-04-24T21:07:55.809Z,99774.31
2023-04-24T21:10:27.143Z,99773.47
2023-04-24T21:12:58.532Z,99774.34
2023-04-24T21:15:30.692Z,99759.50
2023-04-24T21:18:02.982Z,99769.06
2023-04-24T21:20:34.469Z,99773.47
2023-04-24T21:23:05.755Z,99782.28
2023-04-24T21:25:37.446Z,99771.78
2023-04-24T21:28:08.794Z,99776.97
2023-04-24T21:30:40.102Z,99774.38
2023-04-24T21:33:12.259Z,99779.69
2023-04-24T21:35:43.664Z,99783.34
2023-04-24T21:38:15.026Z,99785.22
2023-04-24T21:40:46.376Z,99771.09
2023-04-24T21:43:18.747Z,99775.47
2023-04-24T21:45:52.325Z,99774.72
2023-04-24T21:48:23.650Z,99787.88
2023-04-24T21:50:55.127Z,99783.53
2023-04-24T21:53:26.448Z,99787.91
2023-04-24T21:55:57.876Z,99777.31
2023-04-24T21:58:29.281Z,99780.94
2023-04-24T22:01:00.758Z,99767.91
2023-04-24T22:03:32.383Z,99784.44
2023-04-24T22:06:03.956Z,99784.47
2023-04-24T22:08:35.359Z,99788.06
2023-04-24T22:11:13.574Z,99781.88
2023-04-24T22:13:51.511Z,99788.03
2023-04-24T22:16:23.975Z,99786.28
2023-04-24T22:18:55.624Z,99780.38
2023-04-24T22:21:27.545Z,99768.88
2023-04-24T22:23:58.977Z,99790.63
2023-04-24T22:26:30.339Z,99800.31
2023-04-24T22:29:01.729Z,99795.81
2023-04-24T22:31:33.119Z,99800.19
2023-04-24T22:34:06.580Z,99787.13
2023-04-24T22:36:37.884Z,99803.56
2023-04-24T22:39:10.491Z,99798.31
2023-04-24T22:41:42.817Z,99796.50
2023-04-24T22:44:14.178Z,99804.38
2023-04-24T22:46:46.055Z,99803.47
2023-04-24T22:49:17.373Z,99799.03
2023-04-24T22:51:49.649Z,99792.88
2023-04-24T22:54:20.901Z,99806.03
2023-04-24T22:56:52.912Z,99801.69
2023-04-24T22:59:24.211Z,99808.63
2023-04-24T23:01:56.269Z,99808.59
2023-04-24T23:04:27.979Z,99810.31
2023-04-24T23:06:59.347Z,99805.16
2023-04-24T23:09:30.675Z,99813.81
2023-04-24T23:12:02.128Z,99811.25
2023-04-24T23:14:34.195Z,99804.28
2023-04-24T23:17:05.820Z,99800.72
2023-04-24T23:19:37.096Z,99803.31
2023-04-24T23:22:08.464Z,99804.16
2023-04-24T23:24:39.908Z,99793.75
2023-04-24T23:27:11.259Z,99811.28
2023-04-24T23:29:42.662Z,99807.09
2023-04-24T23:32:13.974Z,99791.72
2023-04-24T23:34:45.639Z,99783.06
2023-04-24T23:37:19.087Z,99796.22
2023-04-24T23:39:50.925Z,99790.13
2023-04-24T23:42:22.199Z,99811.00
2023-04-24T23:44:53.448Z,99785.78
2023-04-24T23:47:24.844Z,99791.91
2023-04-24T23:49:56.159Z,99792.84
2023-04-24T23:52:27.655Z,99793.69
2023-04-24T23:54:59.059Z,99803.31
2023-04-24T23:57:31.101Z,99745.78
